Time;durP1;ratioP1;P1;durP2;ratioP2;P2;SDS_P1;SDS_P2;PMS_P1;PMS_P2;Temp;Humidity;BMP_temperature;BMP_pressure;BME280_temperature;BME280_humidity;BME280_pressure;Samples;Min_cycle;Max_cycle;Signal;HPM_P1;HPM_P2
2023/09/12 00:00:48;;;;;;;4.30;3.90;;;25.80;63.00;;;;;;4936484;28;88181;-86
2023/09/12 00:03:14;;;;;;;4.57;3.95;;;25.80;62.90;;;;;;4938179;28;88447;-88
2023/09/12 00:05:40;;;;;;;5.65;4.22;;;25.70;62.70;;;;;;4927579;28;88240;-86
2023/09/12 00:08:06;;;;;;;4.90;3.70;;;25.80;62.80;;;;;;4938299;28;87161;-86
2023/09/12 00:10:31;;;;;;;4.22;3.65;;;25.70;62.80;;;;;;4940806;28;86933;-85
2023/09/12 00:13:00;;;;;;;4.10;3.70;;;25.70;62.70;;;;;;4937501;28;88609;-86
2023/09/12 00:15:26;;;;;;;5.28;4.18;;;25.70;62.70;;;;;;4918237;28;88969;-88
2023/09/12 00:17:51;;;;;;;4.40;4.00;;;25.70;62.70;;;;;;4938352;28;87214;-85
2023/09/12 00:20:17;;;;;;;4.47;4.03;;;25.70;62.90;;;;;;4938552;28;88173;-85
2023/09/12 00:22:43;;;;;;;4.00;3.60;;;25.70;63.00;;;;;;4937527;28;88224;-88
2023/09/12 00:25:08;;;;;;;4.50;4.03;;;25.70;63.10;;;;;;4919487;28;87291;-89
2023/09/12 00:27:34;;;;;;;4.57;4.18;;;25.70;63.00;;;;;;4940373;28;87964;-85
2023/09/12 00:29:59;;;;;;;3.97;3.30;;;25.70;63.00;;;;;;4937335;28;86996;-88
2023/09/12 00:32:25;;;;;;;5.60;3.85;;;25.70;63.10;;;;;;4924036;28;87392;-84
2023/09/12 00:34:51;;;;;;;4.32;3.88;;;25.70;63.00;;;;;;4942819;28;87300;-85
2023/09/12 00:37:16;;;;;;;3.95;3.55;;;25.70;63.10;;;;;;4941292;28;87940;-85
2023/09/12 00:39:42;;;;;;;4.90;4.03;;;25.60;63.10;;;;;;4946764;28;88912;-84
2023/09/12 00:42:08;;;;;;;5.03;4.18;;;25.60;63.10;;;;;;4943348;28;87092;-84
2023/09/12 00:44:34;;;;;;;4.80;4.30;;;25.70;63.10;;;;;;4943863;28;87541;-84
2023/09/12 00:47:01;;;;;;;4.85;3.72;;;25.70;63.10;;;;;;4939981;28;87519;-84
2023/09/12 00:49:28;;;;;;;4.00;3.60;;;25.70;63.30;;;;;;4942925;28;87700;-86
2023/09/12 00:51:55;;;;;;;4.22;3.72;;;25.70;63.10;;;;;;4943241;28;88455;-86
2023/09/12 00:54:20;;;;;;;5.15;4.38;;;25.60;62.90;;;;;;4944827;28;87492;-85
2023/09/12 00:56:46;;;;;;;5.30;4.03;;;25.70;63.20;;;;;;4942644;28;87351;-85
2023/09/12 00:59:13;;;;;;;4.93;4.30;;;25.60;63.30;;;;;;4940649;28;87828;-83
2023/09/12 01:01:38;;;;;;;4.75;4.30;;;25.60;63.30;;;;;;4941836;28;87911;-86
2023/09/12 01:04:04;;;;;;;4.57;3.50;;;25.60;63.30;;;;;;4925318;28;88428;-85
2023/09/12 01:06:33;;;;;;;4.43;4.03;;;25.60;63.30;;;;;;4943243;28;87465;-91
2023/09/12 01:08:59;;;;;;;4.35;3.75;;;25.60;63.40;;;;;;4923937;28;90044;-85
2023/09/12 01:11:26;;;;;;;4.65;3.92;;;25.60;63.40;;;;;;4937747;28;88181;-85
2023/09/12 01:13:52;;;;;;;4.00;3.70;;;25.60;63.40;;;;;;4940062;28;87602;-85
2023/09/12 01:16:17;;;;;;;4.00;3.60;;;25.60;63.20;;;;;;4918696;28;93306;-86
2023/09/12 01:18:45;;;;;;;4.53;4.13;;;25.60;63.30;;;;;;4941451;28;87703;-84
2023/09/12 01:21:39;;;;;;;4.82;3.70;;;25.60;63.30;;;;;;4947094;28;88023;-84
2023/09/12 01:24:51;;;;;;;4.18;3.78;;;25.60;63.20;;;;;;4940573;28;86939;-85
2023/09/12 01:27:38;;;;;;;3.92;3.53;;;25.60;63.30;;;;;;4940376;28;90802;-85
2023/09/12 01:30:06;;;;;;;3.97;3.53;;;25.60;63.20;;;;;;4942288;28;92109;-85
2023/09/12 01:32:33;;;;;;;4.07;3.65;;;25.60;63.30;;;;;;4935916;28;88739;-85
2023/09/12 01:34:59;;;;;;;4.60;3.60;;;25.60;63.20;;;;;;4941395;28;87002;-85
2023/09/12 01:37:25;;;;;;;4.00;3.60;;;25.60;63.20;;;;;;4936836;28;87192;-85
2023/09/12 01:39:51;;;;;;;5.47;3.95;;;25.50;63.10;;;;;;4940750;28;87473;-87
2023/09/12 01:42:20;;;;;;;3.60;3.30;;;25.60;63.30;;;;;;4934759;28;88581;-86
2023/09/12 01:44:49;;;;;;;6.45;3.63;;;25.60;63.40;;;;;;4921245;28;87390;-84
2023/09/12 01:47:16;;;;;;;4.10;3.60;;;25.60;63.40;;;;;;4939187;28;87516;-84
2023/09/12 01:49:46;;;;;;;3.92;3.53;;;25.50;63.40;;;;;;4937225;28;88230;-86
2023/09/12 01:52:12;;;;;;;4.80;4.03;;;25.60;63.40;;;;;;4937502;28;87532;-87
2023/09/12 01:54:39;;;;;;;4.47;3.70;;;25.60;63.40;;;;;;4935816;28;88765;-85
2023/09/12 01:57:05;;;;;;;4.32;3.80;;;25.60;63.40;;;;;;4918922;28;88006;-84
2023/09/12 01:59:31;;;;;;;4.53;4.07;;;25.60;63.30;;;;;;4935705;28;88573;-86
2023/09/12 02:01:57;;;;;;;4.47;3.70;;;25.60;63.30;;;;;;4940043;28;87652;-86
2023/09/12 02:04:22;;;;;;;3.95;3.63;;;25.60;63.40;;;;;;4940256;28;87700;-85
2023/09/12 02:06:48;;;;;;;4.45;4.03;;;25.50;63.60;;;;;;4941592;28;88278;-85
2023/09/12 02:09:14;;;;;;;3.80;3.42;;;25.50;63.30;;;;;;4943038;28;88270;-84
2023/09/12 02:11:39;;;;;;;5.68;4.05;;;25.50;63.40;;;;;;4936319;28;87872;-90
2023/09/12 02:14:05;;;;;;;3.40;3.10;;;25.50;63.40;;;;;;4939787;28;88013;-87
2023/09/12 02:16:31;;;;;;;4.72;4.10;;;25.50;63.40;;;;;;4920391;28;88089;-84
2023/09/12 02:18:57;;;;;;;3.78;3.47;;;25.50;63.80;;;;;;4937493;28;89104;-86
2023/09/12 02:21:23;;;;;;;3.90;3.50;;;25.50;63.50;;;;;;4939614;28;87305;-85
2023/09/12 02:23:48;;;;;;;3.80;3.40;;;25.50;63.40;;;;;;4936647;28;86924;-85
2023/09/12 02:26:14;;;;;;;4.35;3.30;;;25.50;63.70;;;;;;4937048;28;87814;-86
2023/09/12 02:28:39;;;;;;;4.18;3.78;;;25.50;63.60;;;;;;4922826;28;88964;-85
2023/09/12 02:31:11;;;;;;;6.03;3.90;;;25.50;63.70;;;;;;4940272;28;87782;-85
2023/09/12 02:33:40;;;;;;;4.22;3.75;;;25.50;63.70;;;;;;4939260;28;87052;-84
2023/09/12 02:36:06;;;;;;;4.07;3.67;;;25.50;63.70;;;;;;4936235;28;91218;-85
2023/09/12 02:38:32;;;;;;;4.13;3.67;;;25.50;63.50;;;;;;4940516;28;87451;-86
2023/09/12 02:40:58;;;;;;;5.88;3.53;;;25.50;63.50;;;;;;4938067;28;87916;-84
2023/09/12 02:43:23;;;;;;;5.22;3.53;;;25.50;63.50;;;;;;4939082;28;89052;-84
2023/09/12 02:45:49;;;;;;;4.32;3.92;;;25.50;63.70;;;;;;4940423;28;87405;-88
2023/09/12 02:48:15;;;;;;;4.20;3.80;;;25.50;63.80;;;;;;4942024;28;87840;-85
2023/09/12 02:50:41;;;;;;;4.63;3.85;;;25.50;63.60;;;;;;4936624;28;88396;-88
2023/09/12 02:53:06;;;;;;;4.15;3.42;;;25.50;63.60;;;;;;4941046;28;87677;-84
2023/09/12 02:55:32;;;;;;;3.72;3.38;;;25.50;63.60;;;;;;4937823;28;88047;-87
2023/09/12 02:57:58;;;;;;;4.40;4.00;;;25.40;63.60;;;;;;4937661;28;87562;-84
2023/09/12 03:00:24;;;;;;;4.07;3.65;;;25.50;63.60;;;;;;4940089;28;87183;-86
2023/09/12 03:02:50;;;;;;;4.60;3.70;;;25.50;63.90;;;;;;4918393;28;87760;-84
2023/09/12 03:05:15;;;;;;;4.30;3.90;;;25.50;63.80;;;;;;4940450;28;88349;-84
2023/09/12 03:07:41;;;;;;;4.35;3.95;;;25.50;64.00;;;;;;4937534;28;89374;-84
2023/09/12 03:10:07;;;;;;;3.60;3.28;;;25.50;63.80;;;;;;4918958;28;89368;-87
2023/09/12 03:12:33;;;;;;;3.65;3.15;;;25.50;63.90;;;;;;4937541;28;87842;-85
2023/09/12 03:14:58;;;;;;;3.90;3.40;;;25.50;63.80;;;;;;4916922;28;88133;-84
2023/09/12 03:17:24;;;;;;;3.80;3.30;;;25.50;64.10;;;;;;4939650;28;87972;-86
2023/09/12 03:19:49;;;;;;;4.18;3.78;;;25.40;64.00;;;;;;4937825;28;87502;-85
2023/09/12 03:22:15;;;;;;;3.90;3.42;;;25.50;63.90;;;;;;4938564;28;88559;-87
2023/09/12 03:24:41;;;;;;;4.45;3.63;;;25.40;63.70;;;;;;4936821;28;86902;-89
2023/09/12 03:27:07;;;;;;;3.92;3.50;;;25.40;63.80;;;;;;4938260;28;88553;-87
2023/09/12 03:29:33;;;;;;;4.53;3.53;;;25.40;64.00;;;;;;4944355;28;87783;-89
2023/09/12 03:31:59;;;;;;;3.80;3.47;;;25.40;64.70;;;;;;4939827;28;88303;-85
2023/09/12 03:34:24;;;;;;;4.30;3.60;;;25.40;64.00;;;;;;4938379;28;87734;-84
2023/09/12 03:36:50;;;;;;;3.95;3.55;;;25.40;64.10;;;;;;4940655;28;88213;-87
2023/09/12 03:39:16;;;;;;;3.80;3.47;;;25.40;64.00;;;;;;4937149;28;88298;-86
2023/09/12 03:41:41;;;;;;;4.70;3.60;;;25.40;64.20;;;;;;4936032;28;87291;-85
2023/09/12 03:44:08;;;;;;;5.20;4.10;;;25.40;64.00;;;;;;4937548;28;88059;-85
2023/09/12 03:46:33;;;;;;;4.13;3.72;;;25.40;64.00;;;;;;4934760;28;88161;-86
2023/09/12 03:48:59;;;;;;;3.67;3.38;;;25.40;64.00;;;;;;4940231;28;87643;-85
2023/09/12 03:51:24;;;;;;;3.88;3.50;;;25.40;64.10;;;;;;4933790;28;87343;-84
2023/09/12 03:53:51;;;;;;;3.95;3.47;;;25.40;64.10;;;;;;4937342;28;87468;-86
2023/09/12 03:56:19;;;;;;;3.40;3.10;;;25.40;64.10;;;;;;4933395;28;89072;-86
2023/09/12 03:58:45;;;;;;;3.93;3.53;;;25.40;64.10;;;;;;4939515;28;88227;-89
2023/09/12 04:01:11;;;;;;;4.22;3.83;;;25.40;64.30;;;;;;4941693;28;87248;-87
2023/09/12 04:03:37;;;;;;;3.97;3.50;;;25.40;64.40;;;;;;4940802;28;87608;-89
2023/09/12 04:06:02;;;;;;;3.85;3.50;;;25.40;64.50;;;;;;4940309;28;88038;-85
2023/09/12 04:08:28;;;;;;;3.40;3.10;;;25.40;64.30;;;;;;4919682;28;88144;-85
2023/09/12 04:10:54;;;;;;;3.63;3.33;;;25.30;64.30;;;;;;4938260;28;87651;-85
2023/09/12 04:13:20;;;;;;;4.03;3.65;;;25.40;64.30;;;;;;4939021;28;86932;-85
2023/09/12 04:15:45;;;;;;;3.60;3.30;;;25.40;64.20;;;;;;4938562;28;87813;-85
2023/09/12 04:18:11;;;;;;;4.22;3.70;;;25.40;64.30;;;;;;4939581;28;87381;-85
2023/09/12 04:20:36;;;;;;;3.53;3.22;;;25.40;64.60;;;;;;4936284;28;89154;-84
2023/09/12 04:23:03;;;;;;;3.47;3.17;;;25.30;64.40;;;;;;4941718;28;87966;-86
2023/09/12 04:25:29;;;;;;;5.68;3.63;;;25.30;64.70;;;;;;4939817;28;88658;-84
2023/09/12 04:27:55;;;;;;;4.38;3.70;;;25.30;64.40;;;;;;4939595;28;87960;-88
2023/09/12 04:30:20;;;;;;;4.30;3.78;;;25.30;64.50;;;;;;4941051;28;87390;-86
2023/09/12 04:32:46;;;;;;;3.88;3.47;;;25.30;64.30;;;;;;4921925;28;88441;-86
2023/09/12 04:35:12;;;;;;;4.25;3.85;;;25.40;64.60;;;;;;4940488;28;87181;-87
2023/09/12 04:37:37;;;;;;;3.97;3.53;;;25.30;64.30;;;;;;4939422;28;88609;-86
2023/09/12 04:40:05;;;;;;;3.97;3.58;;;25.30;64.40;;;;;;4941071;28;87914;-88
2023/09/12 04:42:31;;;;;;;4.05;3.65;;;25.30;64.80;;;;;;4940722;28;87166;-87
2023/09/12 04:44:57;;;;;;;3.42;3.13;;;25.30;64.60;;;;;;4937525;28;89099;-87
2023/09/12 04:47:23;;;;;;;3.90;3.53;;;25.30;64.20;;;;;;4937599;28;89356;-85
2023/09/12 04:49:49;;;;;;;4.10;3.70;;;25.30;64.70;;;;;;4918308;28;87873;-84
2023/09/12 04:52:14;;;;;;;4.03;3.53;;;25.30;64.30;;;;;;4916749;28;87668;-84
2023/09/12 04:54:40;;;;;;;5.28;3.63;;;25.30;64.60;;;;;;4917622;28;87722;-84
2023/09/12 04:57:07;;;;;;;3.92;3.53;;;25.30;64.50;;;;;;4917014;28;89297;-85
2023/09/12 04:59:32;;;;;;;3.58;3.28;;;25.30;64.40;;;;;;4918073;28;87911;-84
2023/09/12 05:01:58;;;;;;;3.90;3.50;;;25.30;64.40;;;;;;4931040;28;86994;-84
2023/09/12 05:04:24;;;;;;;4.10;3.53;;;25.30;64.40;;;;;;4935986;28;88018;-85
2023/09/12 05:06:49;;;;;;;4.03;3.58;;;25.30;64.40;;;;;;4934055;28;87932;-84
2023/09/12 05:09:15;;;;;;;4.05;3.58;;;25.30;64.50;;;;;;4935108;28;88786;-84
2023/09/12 05:11:41;;;;;;;3.97;3.50;;;25.30;64.50;;;;;;4937145;28;87292;-85
2023/09/12 05:14:06;;;;;;;4.10;3.70;;;25.30;64.40;;;;;;4933560;28;87716;-84
2023/09/12 05:16:32;;;;;;;3.28;2.90;;;25.30;64.50;;;;;;4932190;28;88013;-85
2023/09/12 05:18:58;;;;;;;3.72;3.42;;;25.30;64.40;;;;;;4936853;28;87902;-86
2023/09/12 05:21:23;;;;;;;4.10;3.70;;;25.30;64.30;;;;;;4941277;28;88062;-85
2023/09/12 05:23:49;;;;;;;4.03;3.63;;;25.30;64.40;;;;;;4920115;28;89113;-85
2023/09/12 05:26:14;;;;;;;4.22;3.83;;;25.30;64.40;;;;;;4938395;28;87475;-85
2023/09/12 05:28:40;;;;;;;3.60;3.30;;;25.30;64.40;;;;;;4922551;28;87726;-85
2023/09/12 05:31:06;;;;;;;4.10;3.60;;;25.30;64.60;;;;;;4916539;28;90115;-85
2023/09/12 05:33:32;;;;;;;3.58;3.25;;;25.30;64.50;;;;;;4935571;28;88797;-84
2023/09/12 05:35:58;;;;;;;3.80;3.40;;;25.30;64.50;;;;;;4937571;28;88344;-85
2023/09/12 05:38:23;;;;;;;3.47;3.17;;;25.30;64.60;;;;;;4921879;28;88080;-85
2023/09/12 05:40:49;;;;;;;4.55;3.17;;;25.30;64.20;;;;;;4923509;28;87548;-85
2023/09/12 05:43:16;;;;;;;3.53;3.22;;;25.30;64.70;;;;;;4937230;28;87566;-85
2023/09/12 05:45:42;;;;;;;3.72;3.40;;;25.30;64.50;;;;;;4935379;28;88293;-85
2023/09/12 05:48:09;;;;;;;3.90;3.55;;;25.30;64.60;;;;;;4918708;28;88243;-84
2023/09/12 05:50:36;;;;;;;4.05;3.65;;;25.30;64.60;;;;;;4938059;28;86608;-85
2023/09/12 05:53:02;;;;;;;4.30;3.78;;;25.30;64.90;;;;;;4937858;28;88128;-86
2023/09/12 05:55:27;;;;;;;3.80;3.40;;;25.20;64.70;;;;;;4921661;28;88675;-84
2023/09/12 05:57:53;;;;;;;3.72;3.42;;;25.30;64.70;;;;;;4937400;28;88282;-85
2023/09/12 06:00:19;;;;;;;3.63;3.30;;;25.20;64.80;;;;;;4933915;28;89103;-85
2023/09/12 06:02:46;;;;;;;3.80;3.42;;;25.30;64.90;;;;;;4936645;28;87845;-84
2023/09/12 06:05:11;;;;;;;3.97;3.67;;;25.30;64.80;;;;;;4917196;28;89955;-85
2023/09/12 06:07:40;;;;;;;3.80;3.50;;;25.20;64.60;;;;;;4933875;28;87066;-84
2023/09/12 06:10:06;;;;;;;3.97;3.40;;;25.20;64.80;;;;;;4936106;28;88009;-84
2023/09/12 06:12:32;;;;;;;3.70;3.40;;;25.20;64.80;;;;;;4938837;28;88362;-86
2023/09/12 06:14:59;;;;;;;4.07;3.50;;;25.20;64.70;;;;;;4938586;28;87702;-85
2023/09/12 06:17:24;;;;;;;3.67;3.38;;;25.20;64.70;;;;;;4939748;28;87093;-84
2023/09/12 06:19:51;;;;;;;3.55;3.25;;;25.20;64.70;;;;;;4919454;28;87934;-85
2023/09/12 06:22:17;;;;;;;3.63;3.33;;;25.20;64.60;;;;;;4917400;28;89754;-84
2023/09/12 06:24:43;;;;;;;4.20;3.67;;;25.30;64.70;;;;;;4937307;28;88153;-85
2023/09/12 06:27:12;;;;;;;3.38;2.90;;;25.20;64.80;;;;;;4938780;28;87729;-84
2023/09/12 06:29:38;;;;;;;4.05;3.65;;;25.30;64.70;;;;;;4937358;28;88151;-84
2023/09/12 06:32:04;;;;;;;4.13;3.25;;;25.30;64.80;;;;;;4939198;28;88544;-85
2023/09/12 06:34:29;;;;;;;3.60;3.25;;;25.30;64.60;;;;;;4933636;28;89619;-84
2023/09/12 06:36:55;;;;;;;3.92;3.58;;;25.20;64.60;;;;;;4934251;28;87234;-84
2023/09/12 06:39:21;;;;;;;3.72;3.42;;;25.30;64.70;;;;;;4921177;28;87396;-85
2023/09/12 06:41:46;;;;;;;3.75;3.38;;;25.30;64.50;;;;;;4937695;28;87957;-85
2023/09/12 06:44:12;;;;;;;3.75;3.38;;;25.30;64.70;;;;;;4939671;28;87494;-85
2023/09/12 06:46:38;;;;;;;3.63;3.20;;;25.40;64.70;;;;;;4921247;28;88654;-84
2023/09/12 06:49:03;;;;;;;3.65;3.35;;;25.40;64.70;;;;;;4937790;28;87765;-84
2023/09/12 06:51:29;;;;;;;3.58;3.28;;;25.40;64.60;;;;;;4937128;28;88148;-85
2023/09/12 06:53:55;;;;;;;3.63;3.30;;;25.40;64.50;;;;;;4935415;28;87697;-84
2023/09/12 06:56:23;;;;;;;3.45;3.15;;;25.40;64.50;;;;;;4915763;28;87734;-84
2023/09/12 06:58:49;;;;;;;3.80;3.47;;;25.40;64.40;;;;;;4918378;28;89473;-84
2023/09/12 07:01:15;;;;;;;3.42;3.13;;;25.50;64.50;;;;;;4936789;28;88054;-84
2023/09/12 07:03:40;;;;;;;3.45;3.15;;;25.50;64.50;;;;;;4938787;28;88575;-84
2023/09/12 07:06:06;;;;;;;3.67;3.38;;;25.60;64.50;;;;;;4936605;28;87752;-84
2023/09/12 07:08:32;;;;;;;3.75;3.35;;;25.60;64.50;;;;;;4939882;28;87073;-88
2023/09/12 07:11:05;;;;;;;4.63;4.18;;;25.60;64.30;;;;;;4936433;28;89140;-87
2023/09/12 07:13:32;;;;;;;5.90;4.38;;;25.60;63.30;;;;;;4942865;28;88392;-88
2023/09/12 07:15:58;;;;;;;44.22;17.88;;;25.50;63.10;;;;;;4922063;28;87508;-87
2023/09/12 07:18:24;;;;;;;42.92;15.57;;;25.50;64.20;;;;;;4938517;28;87691;-87
2023/09/12 07:21:04;;;;;;;27.58;11.95;;;25.50;64.30;;;;;;4920060;28;91098;-88
2023/09/12 07:23:30;;;;;;;22.35;11.63;;;25.40;64.90;;;;;;4938438;28;87607;-87
2023/09/12 07:25:59;;;;;;;24.27;10.95;;;25.50;65.00;;;;;;4934799;28;88053;-87
2023/09/12 07:28:30;;;;;;;26.63;10.90;;;25.50;64.40;;;;;;4901316;28;89349;-87
2023/09/12 07:30:55;;;;;;;20.05;11.02;;;25.40;64.60;;;;;;4921608;28;89819;-86
2023/09/12 07:33:21;;;;;;;19.83;10.02;;;25.50;64.90;;;;;;4938114;28;87826;-86
2023/09/12 07:35:48;;;;;;;16.63;10.73;;;25.50;64.90;;;;;;4933565;28;88835;-86
2023/09/12 07:38:17;;;;;;;16.52;10.27;;;25.50;65.20;;;;;;4934906;28;87730;-86
2023/09/12 07:40:42;;;;;;;14.70;9.98;;;25.50;65.20;;;;;;4939865;28;88031;-89
2023/09/12 07:43:09;;;;;;;18.35;9.55;;;25.50;65.80;;;;;;4918920;28;88009;-87
2023/09/12 07:45:37;;;;;;;18.88;9.77;;;25.50;65.50;;;;;;4938152;28;87578;-86
2023/09/12 07:48:05;;;;;;;17.63;9.48;;;25.50;65.60;;;;;;4937801;28;87665;-86
2023/09/12 07:50:31;;;;;;;14.75;8.27;;;25.50;65.70;;;;;;4920599;28;91022;-86
2023/09/12 07:52:57;;;;;;;14.55;8.13;;;25.50;65.70;;;;;;4917322;28;89559;-86
2023/09/12 07:55:22;;;;;;;14.50;8.95;;;25.50;65.60;;;;;;4936492;28;87741;-86
2023/09/12 07:57:48;;;;;;;11.85;8.95;;;25.50;65.20;;;;;;4922669;28;88997;-87
2023/09/12 08:00:14;;;;;;;14.15;8.05;;;25.50;65.20;;;;;;4923114;28;91795;-87
2023/09/12 08:02:39;;;;;;;15.35;9.35;;;25.50;65.00;;;;;;4936016;28;87565;-87
2023/09/12 08:05:06;;;;;;;24.65;10.68;;;25.60;65.10;;;;;;4939664;28;87323;-86
2023/09/12 08:07:32;;;;;;;27.55;11.15;;;25.60;64.90;;;;;;4933705;28;87485;-86
2023/09/12 08:09:58;;;;;;;47.10;15.30;;;25.60;65.00;;;;;;4930988;28;87944;-86
2023/09/12 08:12:25;;;;;;;28.58;11.52;;;25.60;65.30;;;;;;4933835;28;87615;-85
2023/09/12 08:14:51;;;;;;;21.10;10.55;;;25.50;64.70;;;;;;4935667;28;87738;-84
2023/09/12 08:17:17;;;;;;;38.97;13.25;;;25.50;65.80;;;;;;4938028;28;87937;-85
2023/09/12 08:19:43;;;;;;;24.45;11.57;;;25.50;64.80;;;;;;4933500;28;87733;-85
2023/09/12 08:22:10;;;;;;;29.30;11.82;;;25.50;65.00;;;;;;4936429;28;87877;-85
2023/09/12 08:24:36;;;;;;;33.10;11.15;;;25.50;65.20;;;;;;4934748;28;87930;-85
2023/09/12 08:27:02;;;;;;;30.95;13.32;;;25.50;64.80;;;;;;4935788;28;88411;-85
2023/09/12 08:29:28;;;;;;;28.77;11.18;;;25.50;65.00;;;;;;4936311;28;87841;-85
2023/09/12 08:31:54;;;;;;;20.60;11.13;;;25.50;64.90;;;;;;4937839;28;88193;-85
2023/09/12 08:34:23;;;;;;;21.42;11.25;;;25.50;64.50;;;;;;4936145;28;87436;-86
2023/09/12 08:36:48;;;;;;;22.80;10.90;;;25.50;65.30;;;;;;4934258;28;87288;-85
2023/09/12 08:39:17;;;;;;;27.30;10.27;;;25.50;64.70;;;;;;4935820;28;87414;-85
2023/09/12 08:41:46;;;;;;;27.48;11.48;;;25.50;64.60;;;;;;4935613;28;87596;-85
2023/09/12 08:44:12;;;;;;;21.35;10.68;;;25.50;64.60;;;;;;4937894;28;88108;-85
2023/09/12 08:46:39;;;;;;;19.70;10.30;;;25.50;64.60;;;;;;4937993;28;87684;-85
2023/09/12 08:49:06;;;;;;;22.58;10.77;;;25.50;64.50;;;;;;4932675;28;89150;-85
2023/09/12 08:51:32;;;;;;;19.48;10.02;;;25.60;64.50;;;;;;4916875;28;91467;-85
2023/09/12 08:53:59;;;;;;;19.90;10.20;;;25.60;64.30;;;;;;4939433;28;87322;-85
2023/09/12 08:56:25;;;;;;;16.63;9.38;;;25.60;64.50;;;;;;4924090;28;88939;-85
2023/09/12 08:58:51;;;;;;;18.83;9.88;;;25.50;64.10;;;;;;4936878;28;87389;-85
2023/09/12 09:01:18;;;;;;;16.48;9.27;;;25.50;64.10;;;;;;4940131;28;87487;-85
2023/09/12 09:03:44;;;;;;;13.82;8.55;;;25.50;64.30;;;;;;4920543;28;87438;-85
2023/09/12 09:06:11;;;;;;;15.38;8.45;;;25.50;64.20;;;;;;4937634;28;87002;-84
2023/09/12 09:08:39;;;;;;;10.63;8.15;;;25.50;64.10;;;;;;4937375;28;87720;-85
2023/09/12 09:11:06;;;;;;;17.27;8.93;;;25.50;64.10;;;;;;4943710;28;88307;-85
2023/09/12 09:13:32;;;;;;;15.50;9.60;;;25.50;63.90;;;;;;4938535;28;88539;-85
2023/09/12 09:16:19;;;;;;;15.93;9.70;;;25.50;64.20;;;;;;4938817;28;87524;-86
2023/09/12 09:18:55;;;;;;;15.82;9.20;;;25.50;63.90;;;;;;4940866;28;87999;-85
2023/09/12 09:21:24;;;;;;;12.95;8.07;;;25.50;64.00;;;;;;4939868;28;88164;-86
2023/09/12 09:23:51;;;;;;;13.82;8.52;;;25.50;63.90;;;;;;4938078;28;88105;-85
2023/09/12 09:26:17;;;;;;;13.68;8.70;;;25.60;64.30;;;;;;4940161;28;87882;-85
2023/09/12 09:28:42;;;;;;;13.15;7.40;;;25.60;64.10;;;;;;4939493;28;88299;-86
2023/09/12 09:31:13;;;;;;;17.45;9.23;;;25.60;63.80;;;;;;4941604;28;88861;-85
2023/09/12 09:33:48;;;;;;;12.63;9.00;;;25.60;63.90;;;;;;4924326;28;88144;-86
2023/09/12 09:36:14;;;;;;;12.23;8.30;;;25.50;64.20;;;;;;4936022;28;92724;-86
2023/09/12 09:38:40;;;;;;;10.90;8.13;;;25.60;64.30;;;;;;4939790;28;88016;-85
2023/09/12 09:41:07;;;;;;;16.67;7.72;;;25.50;63.80;;;;;;4937973;28;89408;-86
2023/09/12 09:43:33;;;;;;;11.27;7.15;;;25.60;64.00;;;;;;4938445;28;87407;-85
2023/09/12 09:45:59;;;;;;;12.75;7.90;;;25.50;63.90;;;;;;4936623;28;88060;-85
2023/09/12 09:48:26;;;;;;;12.35;7.43;;;25.60;64.10;;;;;;4919922;28;90058;-85
2023/09/12 09:50:59;;;;;;;11.10;7.57;;;25.60;64.10;;;;;;4938943;28;88641;-84
2023/09/12 09:53:29;;;;;;;10.73;7.38;;;25.60;64.10;;;;;;4938435;28;87586;-85
2023/09/12 09:56:12;;;;;;;11.07;7.20;;;25.60;64.10;;;;;;4939778;28;87524;-84
2023/09/12 09:59:07;;;;;;;19.05;7.90;;;25.70;64.10;;;;;;4936220;28;88523;-85
2023/09/12 10:01:35;;;;;;;12.02;7.57;;;25.70;64.40;;;;;;4916744;28;87880;-84
2023/09/12 10:04:02;;;;;;;8.73;7.28;;;25.70;64.50;;;;;;4939921;28;88164;-85
2023/09/12 10:06:28;;;;;;;11.55;7.18;;;25.80;64.50;;;;;;4933563;28;89478;-84
2023/09/12 10:08:55;;;;;;;13.23;7.13;;;25.70;64.10;;;;;;4920859;28;89584;-84
2023/09/12 10:11:24;;;;;;;13.23;6.70;;;25.70;64.30;;;;;;4938638;28;87935;-84
2023/09/12 10:13:54;;;;;;;9.47;7.03;;;25.70;64.60;;;;;;4923786;28;87592;-83
2023/09/12 10:16:47;;;;;;;16.95;7.88;;;25.70;64.50;;;;;;4919554;28;87851;-86
2023/09/12 10:19:32;;;;;;;11.80;7.22;;;25.70;64.90;;;;;;4919708;28;91988;-83
2023/09/12 10:22:17;;;;;;;13.48;6.95;;;25.80;64.90;;;;;;4924654;28;90712;-85
2023/09/12 10:24:45;;;;;;;12.23;6.53;;;25.80;64.90;;;;;;4930027;28;87607;-85
2023/09/12 10:27:12;;;;;;;10.30;6.57;;;25.70;64.70;;;;;;4940176;28;88176;-85
2023/09/12 10:29:38;;;;;;;10.15;6.63;;;25.70;65.10;;;;;;4935582;28;87973;-85
2023/09/12 10:32:04;;;;;;;9.55;6.20;;;25.80;65.20;;;;;;4921988;28;91702;-85
2023/09/12 10:34:32;;;;;;;11.23;7.03;;;25.80;64.60;;;;;;4923655;28;87010;-85
2023/09/12 10:37:04;;;;;;;11.20;7.00;;;25.70;64.70;;;;;;4936442;28;87498;-84
2023/09/12 10:39:31;;;;;;;10.88;6.43;;;25.70;64.80;;;;;;4937239;28;88018;-83
2023/09/12 10:42:03;;;;;;;9.40;6.45;;;25.70;65.10;;;;;;4920896;28;88999;-84
2023/09/12 10:44:32;;;;;;;8.75;6.43;;;25.80;64.80;;;;;;4919518;28;87477;-84
2023/09/12 10:46:58;;;;;;;12.75;6.85;;;25.80;65.20;;;;;;4936800;28;86825;-85
2023/09/12 10:49:25;;;;;;;14.18;7.47;;;25.80;65.10;;;;;;4938769;28;88256;-85
2023/09/12 10:51:52;;;;;;;8.10;6.50;;;25.80;65.20;;;;;;4937757;28;88071;-84
2023/09/12 10:54:35;;;;;;;9.25;6.32;;;25.80;65.40;;;;;;4936031;28;88569;-84
2023/09/12 10:57:14;;;;;;;10.38;6.30;;;25.80;65.10;;;;;;4936657;28;87525;-84
2023/09/12 11:00:04;;;;;;;8.52;6.28;;;25.80;64.80;;;;;;4934717;28;87613;-84
2023/09/12 11:02:37;;;;;;;7.97;6.45;;;25.80;64.70;;;;;;4937315;28;87340;-84
2023/09/12 11:05:04;;;;;;;9.77;6.20;;;25.80;64.70;;;;;;4939464;28;87475;-84
2023/09/12 11:07:36;;;;;;;9.30;5.93;;;25.80;64.80;;;;;;4934367;28;87530;-85
2023/09/12 11:10:18;;;;;;;8.10;6.75;;;25.80;64.80;;;;;;4940121;28;87953;-85
2023/09/12 11:12:45;;;;;;;12.02;5.72;;;25.80;64.80;;;;;;4919825;28;89742;-83
2023/09/12 11:15:11;;;;;;;9.23;6.18;;;25.90;65.30;;;;;;4933861;28;87513;-86
2023/09/12 11:17:45;;;;;;;10.00;6.43;;;25.90;65.00;;;;;;4919213;28;88138;-83
2023/09/12 11:20:12;;;;;;;8.85;6.05;;;25.90;65.20;;;;;;4927503;28;90262;-83
2023/09/12 11:22:42;;;;;;;10.93;5.82;;;25.90;65.00;;;;;;4935227;28;89687;-83
2023/09/12 11:25:28;;;;;;;8.68;6.32;;;25.90;65.10;;;;;;4939017;28;87526;-81
2023/09/12 11:27:53;;;;;;;7.88;6.10;;;25.80;64.90;;;;;;4937677;28;87446;-83
2023/09/12 11:30:21;;;;;;;6.25;5.63;;;25.90;65.10;;;;;;4936231;28;88225;-83
2023/09/12 11:32:50;;;;;;;7.07;6.07;;;25.80;64.90;;;;;;4935046;28;88573;-84
2023/09/12 11:35:21;;;;;;;8.15;6.03;;;25.80;65.10;;;;;;4937564;28;87732;-84
2023/09/12 11:37:51;;;;;;;7.22;5.82;;;25.80;65.10;;;;;;4936953;28;87406;-84
2023/09/12 11:40:23;;;;;;;8.70;5.80;;;25.80;65.10;;;;;;4933631;28;88020;-83
2023/09/12 11:42:50;;;;;;;7.93;5.93;;;25.70;65.20;;;;;;4933664;28;88683;-83
2023/09/12 11:45:19;;;;;;;8.02;5.82;;;25.70;65.10;;;;;;4934700;28;88231;-83
2023/09/12 11:47:45;;;;;;;6.43;5.45;;;25.70;65.10;;;;;;4938765;28;87958;-83
2023/09/12 11:50:30;;;;;;;7.97;5.38;;;25.80;65.20;;;;;;4935127;28;90612;-83
2023/09/12 11:53:07;;;;;;;6.95;5.55;;;25.80;65.10;;;;;;4927449;28;90012;-83
2023/09/12 11:55:47;;;;;;;8.30;5.90;;;25.80;65.00;;;;;;4936538;28;87985;-83
2023/09/12 11:58:15;;;;;;;6.45;5.40;;;25.80;65.10;;;;;;4936263;28;87794;-83
2023/09/12 12:00:55;;;;;;;7.88;6.07;;;25.80;64.90;;;;;;4937256;28;88419;-83
2023/09/12 12:03:22;;;;;;;8.80;5.80;;;25.80;64.90;;;;;;4936260;28;88011;-84
2023/09/12 12:05:49;;;;;;;7.82;6.13;;;25.80;64.80;;;;;;4937533;28;87432;-83
2023/09/12 12:08:16;;;;;;;9.00;5.88;;;25.80;64.80;;;;;;4936664;28;87372;-84
2023/09/12 12:10:42;;;;;;;7.85;5.63;;;25.80;64.90;;;;;;4939210;28;88395;-83
2023/09/12 12:13:18;;;;;;;5.95;5.18;;;25.80;64.70;;;;;;4937710;28;88223;-81
2023/09/12 12:15:43;;;;;;;9.15;5.85;;;25.80;64.70;;;;;;4934917;28;86990;-83
2023/09/12 12:18:09;;;;;;;7.53;5.55;;;25.80;64.70;;;;;;4937204;28;87793;-84
2023/09/12 12:20:35;;;;;;;7.93;5.10;;;25.80;64.60;;;;;;4919445;28;87603;-83
2023/09/12 12:23:01;;;;;;;8.13;5.55;;;25.80;64.60;;;;;;4933529;28;88523;-84
2023/09/12 12:25:31;;;;;;;6.32;5.45;;;25.80;64.30;;;;;;4915328;28;87120;-82
2023/09/12 12:27:56;;;;;;;7.82;5.22;;;25.80;64.30;;;;;;4936269;28;87710;-83
2023/09/12 12:30:22;;;;;;;7.53;5.32;;;25.80;65.20;;;;;;4942209;28;87534;-83
2023/09/12 12:32:51;;;;;;;6.35;5.30;;;25.80;64.50;;;;;;4937642;28;88272;-84
2023/09/12 12:35:22;;;;;;;7.38;5.32;;;25.80;64.40;;;;;;4937937;28;89366;-84
2023/09/12 12:37:53;;;;;;;6.78;5.00;;;25.80;64.40;;;;;;4937219;28;88077;-85
2023/09/12 12:40:19;;;;;;;6.22;5.15;;;25.80;64.40;;;;;;4923344;28;88981;-85
2023/09/12 12:42:48;;;;;;;8.35;5.18;;;25.80;64.30;;;;;;4918888;28;90283;-85
2023/09/12 12:45:18;;;;;;;6.97;5.63;;;25.90;64.30;;;;;;4937817;28;87939;-84